Barnesville, Minnesota
Current Conditions -  °F | °C
As of 2:31 PM on Monday 24 Nov 2014 (Local Time) from KJKJ Reporting Station
Unknown Precip Unknown Precip  
Wind Chill:   Ceiling: 1400
Heat Index: 18°   Visibility: 7mi
Dew Point: 14°   Wind: 21mph
Humidity: 86%   Direction: 340°NNW
Pressure: 29.8"   Gusts: 26mph
Location:  46.65°N, 96.42°W
Report Text: KJKJ 242031Z AUTO 34018G23KT 7SM UP SCT009 OVC014 M08/M10 A2980 RMK AO2
Loading
Personal Weather Stations






























Interactive Weather Map New forecast layout! Learn more

10-Day Weather Forecast

Advertisements
Track Severe Weather on mobile